sensor_id;sensor_type;location;lat;lon;timestamp;pressure;altitude;pressure_sealevel;temperature;humidity
57114;BME280;42994;51.606;9.988;2022-11-09T00:00:06;98372.66;;;12.39;100.00
57114;BME280;42994;51.606;9.988;2022-11-09T00:02:34;98370.63;;;12.35;100.00
57114;BME280;42994;51.606;9.988;2022-11-09T00:05:02;98368.97;;;12.34;100.00
57114;BME280;42994;51.606;9.988;2022-11-09T00:07:29;98366.41;;;12.45;100.00
57114;BME280;42994;51.606;9.988;2022-11-09T00:09:56;98360.78;;;12.28;100.00
57114;BME280;42994;51.606;9.988;2022-11-09T00:12:23;98357.53;;;12.20;100.00
57114;BME280;42994;51.606;9.988;2022-11-09T00:14:49;98364.69;;;12.26;100.00
57114;BME280;42994;51.606;9.988;2022-11-09T00:17:16;98360.31;;;12.31;100.00
57114;BME280;42994;51.606;9.988;2022-11-09T00:19:43;98364.53;;;12.21;100.00
57114;BME280;42994;51.606;9.988;2022-11-09T00:22:11;98365.59;;;12.20;100.00
57114;BME280;42994;51.606;9.988;2022-11-09T00:24:37;98367.88;;;12.16;100.00
57114;BME280;42994;51.606;9.988;2022-11-09T00:27:04;98359.63;;;12.18;100.00
57114;BME280;42994;51.606;9.988;2022-11-09T00:29:31;98375.50;;;12.19;100.00
57114;BME280;42994;51.606;9.988;2022-11-09T00:31:57;98357.53;;;12.20;100.00
57114;BME280;42994;51.606;9.988;2022-11-09T00:34:24;98353.63;;;12.16;100.00
57114;BME280;42994;51.606;9.988;2022-11-09T00:36:51;98351.56;;;12.18;100.00
57114;BME280;42994;51.606;9.988;2022-11-09T00:39:19;98343.50;;;12.18;100.00
57114;BME280;42994;51.606;9.988;2022-11-09T00:41:46;98344.25;;;12.25;100.00
57114;BME280;42994;51.606;9.988;2022-11-09T00:44:13;98352.56;;;12.17;100.00
57114;BME280;42994;51.606;9.988;2022-11-09T00:46:39;98354.34;;;12.29;100.00
57114;BME280;42994;51.606;9.988;2022-11-09T00:49:06;98351.63;;;12.36;100.00
57114;BME280;42994;51.606;9.988;2022-11-09T00:51:33;98350.28;;;12.20;100.00
57114;BME280;42994;51.606;9.988;2022-11-09T00:54:00;98350.66;;;12.24;100.00
57114;BME280;42994;51.606;9.988;2022-11-09T00:56:29;98343.91;;;12.15;100.00
57114;BME280;42994;51.606;9.988;2022-11-09T00:58:55;98355.66;;;12.20;100.00
57114;BME280;42994;51.606;9.988;2022-11-09T01:01:22;98349.53;;;12.38;100.00
57114;BME280;42994;51.606;9.988;2022-11-09T01:03:49;98352.31;;;12.25;100.00
57114;BME280;42994;51.606;9.988;2022-11-09T01:06:19;98356.22;;;12.29;100.00
57114;BME280;42994;51.606;9.988;2022-11-09T01:08:46;98358.34;;;12.20;100.00
57114;BME280;42994;51.606;9.988;2022-11-09T01:11:15;98361.06;;;12.14;100.00
57114;BME280;42994;51.606;9.988;2022-11-09T01:13:43;98369.63;;;12.04;100.00
57114;BME280;42994;51.606;9.988;2022-11-09T01:16:12;98364.69;;;12.26;100.00
57114;BME280;42994;51.606;9.988;2022-11-09T01:18:40;98366.44;;;12.14;100.00
57114;BME280;42994;51.606;9.988;2022-11-09T01:21:09;98365.00;;;12.18;100.00
57114;BME280;42994;51.606;9.988;2022-11-09T01:23:36;98368.34;;;12.06;100.00
57114;BME280;42994;51.606;9.988;2022-11-09T01:26:05;98372.50;;;12.02;100.00
57114;BME280;42994;51.606;9.988;2022-11-09T01:28:32;98374.56;;;12.07;100.00
57114;BME280;42994;51.606;9.988;2022-11-09T01:31:05;98360.78;;;11.97;100.00
57114;BME280;42994;51.606;9.988;2022-11-09T01:33:32;98363.69;;;11.95;100.00
57114;BME280;42994;51.606;9.988;2022-11-09T01:36:02;98361.19;;;11.93;100.00
57114;BME280;42994;51.606;9.988;2022-11-09T01:38:30;98365.16;;;11.91;100.00
57114;BME280;42994;51.606;9.988;2022-11-09T01:40:57;98366.34;;;11.95;100.00
57114;BME280;42994;51.606;9.988;2022-11-09T01:43:26;98362.16;;;12.06;100.00
57114;BME280;42994;51.606;9.988;2022-11-09T01:45:55;98361.84;;;11.96;100.00
57114;BME280;42994;51.606;9.988;2022-11-09T01:48:33;98372.72;;;12.01;100.00
57114;BME280;42994;51.606;9.988;2022-11-09T01:51:05;98372.56;;;11.96;100.00
57114;BME280;42994;51.606;9.988;2022-11-09T01:53:37;98371.66;;;12.08;100.00
57114;BME280;42994;51.606;9.988;2022-11-09T01:56:09;98368.44;;;11.93;100.00
57114;BME280;42994;51.606;9.988;2022-11-09T01:58:41;98372.56;;;11.96;100.00
57114;BME280;42994;51.606;9.988;2022-11-09T02:01:09;98378.50;;;12.04;100.00
57114;BME280;42994;51.606;9.988;2022-11-09T02:03:40;98377.53;;;12.24;100.00
57114;BME280;42994;51.606;9.988;2022-11-09T02:06:11;98391.72;;;12.06;100.00
57114;BME280;42994;51.606;9.988;2022-11-09T02:08:39;98385.69;;;12.10;100.00
57114;BME280;42994;51.606;9.988;2022-11-09T02:11:11;98381.56;;;12.08;100.00
57114;BME280;42994;51.606;9.988;2022-11-09T02:13:42;98378.09;;;12.01;100.00
57114;BME280;42994;51.606;9.988;2022-11-09T02:16:11;98373.38;;;11.96;100.00
57114;BME280;42994;51.606;9.988;2022-11-09T02:18:44;98375.81;;;12.04;100.00
57114;BME280;42994;51.606;9.988;2022-11-09T02:21:14;98381.84;;;12.00;100.00
57114;BME280;42994;51.606;9.988;2022-11-09T02:23:41;98381.78;;;12.06;100.00
57114;BME280;42994;51.606;9.988;2022-11-09T02:26:10;98382.06;;;11.98;100.00
57114;BME280;42994;51.606;9.988;2022-11-09T02:28:39;98384.72;;;12.30;100.00
57114;BME280;42994;51.606;9.988;2022-11-09T02:31:09;98390.97;;;12.24;100.00
57114;BME280;42994;51.606;9.988;2022-11-09T02:33:42;98391.38;;;12.27;100.00
57114;BME280;42994;51.606;9.988;2022-11-09T02:36:09;98388.28;;;12.24;100.00
57114;BME280;42994;51.606;9.988;2022-11-09T02:38:38;98396.63;;;12.16;100.00
57114;BME280;42994;51.606;9.988;2022-11-09T02:41:05;98396.78;;;12.21;100.00
57114;BME280;42994;51.606;9.988;2022-11-09T02:43:32;98392.69;;;12.11;100.00
57114;BME280;42994;51.606;9.988;2022-11-09T02:45:59;98394.66;;;11.98;100.00
57114;BME280;42994;51.606;9.988;2022-11-09T02:48:26;98401.50;;;11.93;100.00
57114;BME280;42994;51.606;9.988;2022-11-09T02:50:56;98382.09;;;11.91;100.00
57114;BME280;42994;51.606;9.988;2022-11-09T02:53:22;98396.09;;;12.00;100.00
57114;BME280;42994;51.606;9.988;2022-11-09T02:55:51;98389.03;;;12.06;100.00
57114;BME280;42994;51.606;9.988;2022-11-09T02:58:17;98388.03;;;12.00;100.00
57114;BME280;42994;51.606;9.988;2022-11-09T03:00:44;98390.75;;;11.93;100.00
57114;BME280;42994;51.606;9.988;2022-11-09T03:03:12;98389.31;;;11.91;100.00
57114;BME280;42994;51.606;9.988;2022-11-09T03:05:41;98393.22;;;11.95;100.00
57114;BME280;42994;51.606;9.988;2022-11-09T03:08:09;98389.31;;;11.91;100.00
57114;BME280;42994;51.606;9.988;2022-11-09T03:10:36;98387.03;;;11.88;100.00
57114;BME280;42994;51.606;9.988;2022-11-09T03:13:04;98388.28;;;11.85;100.00
57114;BME280;42994;51.606;9.988;2022-11-09T03:15:30;98382.94;;;11.92;100.00
57114;BME280;42994;51.606;9.988;2022-11-09T03:17:58;98384.34;;;11.88;100.00
57114;BME280;42994;51.606;9.988;2022-11-09T03:20:24;98388.91;;;11.87;100.00
57114;BME280;42994;51.606;9.988;2022-11-09T03:22:56;98386.00;;;11.89;100.00
57114;BME280;42994;51.606;9.988;2022-11-09T03:25:23;98389.09;;;11.86;100.00
57114;BME280;42994;51.606;9.988;2022-11-09T03:27:50;98378.56;;;11.84;100.00
57114;BME280;42994;51.606;9.988;2022-11-09T03:30:18;98392.66;;;11.80;100.00
57114;BME280;42994;51.606;9.988;2022-11-09T03:32:45;98398.19;;;11.91;100.00
57114;BME280;42994;51.606;9.988;2022-11-09T03:35:12;98387.84;;;11.95;100.00
57114;BME280;42994;51.606;9.988;2022-11-09T03:37:39;98391.59;;;11.87;100.00
57114;BME280;42994;51.606;9.988;2022-11-09T03:40:07;98392.00;;;11.84;100.00
57114;BME280;42994;51.606;9.988;2022-11-09T03:42:34;98380.47;;;11.77;100.00
57114;BME280;42994;51.606;9.988;2022-11-09T03:45:00;98381.31;;;11.78;100.00
57114;BME280;42994;51.606;9.988;2022-11-09T03:47:28;98374.25;;;11.83;100.00
57114;BME280;42994;51.606;9.988;2022-11-09T03:49:55;98376.75;;;11.78;100.00
57114;BME280;42994;51.606;9.988;2022-11-09T03:52:22;98392.66;;;11.80;100.00
57114;BME280;42994;51.606;9.988;2022-11-09T03:54:49;98391.19;;;11.84;100.00
57114;BME280;42994;51.606;9.988;2022-11-09T03:57:15;98389.56;;;11.83;100.00
57114;BME280;42994;51.606;9.988;2022-11-09T03:59:42;98383.41;;;11.76;100.00
57114;BME280;42994;51.606;9.988;2022-11-09T04:02:09;98378.63;;;11.78;100.00
57114;BME280;42994;51.606;9.988;2022-11-09T04:04:37;98386.28;;;11.74;100.00
57114;BME280;42994;51.606;9.988;2022-11-09T04:07:04;98373.91;;;11.73;100.00
57114;BME280;42994;51.606;9.988;2022-11-09T04:09:30;98373.06;;;11.72;100.00
57114;BME280;42994;51.606;9.988;2022-11-09T04:11:57;98360.25;;;11.74;100.00
57114;BME280;42994;51.606;9.988;2022-11-09T04:14:24;98349.94;;;11.71;100.00
57114;BME280;42994;51.606;9.988;2022-11-09T04:16:50;98348.31;;;11.70;100.00
57114;BME280;42994;51.606;9.988;2022-11-09T04:19:17;98334.09;;;11.63;100.00
57114;BME280;42994;51.606;9.988;2022-11-09T04:21:48;98318.22;;;11.62;100.00
57114;BME280;42994;51.606;9.988;2022-11-09T04:24:15;98315.31;;;11.63;100.00
57114;BME280;42994;51.606;9.988;2022-11-09T04:26:44;98327.53;;;11.59;100.00
57114;BME280;42994;51.606;9.988;2022-11-09T04:29:12;98344.22;;;11.61;100.00
57114;BME280;42994;51.606;9.988;2022-11-09T04:31:38;98336.38;;;11.60;100.00
57114;BME280;42994;51.606;9.988;2022-11-09T04:34:05;98345.47;;;11.59;100.00
57114;BME280;42994;51.606;9.988;2022-11-09T04:36:32;98346.72;;;11.56;100.00
57114;BME280;42994;51.606;9.988;2022-11-09T04:39:00;98348.34;;;11.64;100.00
57114;BME280;42994;51.606;9.988;2022-11-09T04:41:27;98347.13;;;11.60;100.00
57114;BME280;42994;51.606;9.988;2022-11-09T04:43:53;98355.19;;;11.60;100.00
57114;BME280;42994;51.606;9.988;2022-11-09T04:46:20;98362.63;;;11.58;100.00
57114;BME280;42994;51.606;9.988;2022-11-09T04:48:47;98370.69;;;11.58;100.00
57114;BME280;42994;51.606;9.988;2022-11-09T04:51:14;98379.75;;;11.57;100.00
57114;BME280;42994;51.606;9.988;2022-11-09T04:53:41;98380.34;;;11.65;100.00
57114;BME280;42994;51.606;9.988;2022-11-09T04:56:09;98369.84;;;11.57;100.00
57114;BME280;42994;51.606;9.988;2022-11-09T04:58:36;98378.13;;;11.56;100.00
57114;BME280;42994;51.606;9.988;2022-11-09T05:01:05;98378.06;;;11.62;100.00
57114;BME280;42994;51.606;9.988;2022-11-09T05:03:32;98376.69;;;11.53;100.00
57114;BME280;42994;51.606;9.988;2022-11-09T05:05:58;98375.66;;;11.54;100.00
57114;BME280;42994;51.606;9.988;2022-11-09T05:08:25;98371.72;;;11.57;100.00
57114;BME280;42994;51.606;9.988;2022-11-09T05:10:55;98369.22;;;11.55;100.00
57114;BME280;42994;51.606;9.988;2022-11-09T05:13:23;98373.38;;;11.51;100.00
57114;BME280;42994;51.606;9.988;2022-11-09T05:15:50;98365.34;;;11.51;100.00
57114;BME280;42994;51.606;9.988;2022-11-09T05:18:16;98364.94;;;11.47;100.00
57114;BME280;42994;51.606;9.988;2022-11-09T05:20:43;98364.13;;;11.47;100.00
57114;BME280;42994;51.606;9.988;2022-11-09T05:23:10;98370.09;;;11.49;100.00
57114;BME280;42994;51.606;9.988;2022-11-09T05:25:50;98369.91;;;11.44;100.00
57114;BME280;42994;51.606;9.988;2022-11-09T05:28:17;98373.41;;;11.44;100.00
57114;BME280;42994;51.606;9.988;2022-11-09T05:30:45;98370.50;;;11.46;100.00
57114;BME280;42994;51.606;9.988;2022-11-09T05:33:13;98368.47;;;11.41;100.00
57114;BME280;42994;51.606;9.988;2022-11-09T05:35:41;98373.00;;;11.41;100.00
57114;BME280;42994;51.606;9.988;2022-11-09T05:38:08;98382.91;;;11.40;100.00
57114;BME280;42994;51.606;9.988;2022-11-09T05:40:35;98390.97;;;11.47;100.00
57114;BME280;42994;51.606;9.988;2022-11-09T05:43:02;98401.91;;;11.45;100.00
57114;BME280;42994;51.606;9.988;2022-11-09T05:45:28;98401.44;;;11.55;100.00
57114;BME280;42994;51.606;9.988;2022-11-09T05:47:57;98404.16;;;11.48;100.00
57114;BME280;42994;51.606;9.988;2022-11-09T05:50:23;98408.28;;;11.51;100.00
57114;BME280;42994;51.606;9.988;2022-11-09T05:53:08;98410.16;;;11.44;100.00
57114;BME280;42994;51.606;9.988;2022-11-09T05:55:35;98408.09;;;11.46;100.00
57114;BME280;42994;51.606;9.988;2022-11-09T05:58:02;98416.53;;;11.56;100.00
57114;BME280;42994;51.606;9.988;2022-11-09T06:00:29;98418.19;;;11.50;100.00
57114;BME280;42994;51.606;9.988;2022-11-09T06:03:01;98415.25;;;11.59;100.00
57114;BME280;42994;51.606;9.988;2022-11-09T06:05:28;98416.72;;;11.61;100.00
57114;BME280;42994;51.606;9.988;2022-11-09T06:08:00;98415.84;;;11.67;100.00
57114;BME280;42994;51.606;9.988;2022-11-09T06:10:27;98402.84;;;11.64;100.00
57114;BME280;42994;51.606;9.988;2022-11-09T06:12:55;98412.34;;;11.67;100.00
57114;BME280;42994;51.606;9.988;2022-11-09T06:15:21;98413.78;;;11.69;100.00
57114;BME280;42994;51.606;9.988;2022-11-09T06:17:50;98417.94;;;11.59;100.00
57114;BME280;42994;51.606;9.988;2022-11-09T06:20:20;98424.38;;;11.58;100.00
57114;BME280;42994;51.606;9.988;2022-11-09T06:22:52;98417.31;;;11.63;100.00
57114;BME280;42994;51.606;9.988;2022-11-09T06:25:19;98412.97;;;11.62;100.00
57114;BME280;42994;51.606;9.988;2022-11-09T06:27:45;98413.97;;;11.68;100.00
57114;BME280;42994;51.606;9.988;2022-11-09T06:30:13;98405.78;;;11.63;100.00
57114;BME280;42994;51.606;9.988;2022-11-09T06:32:40;98406.53;;;11.70;100.00
57114;BME280;42994;51.606;9.988;2022-11-09T06:35:07;98401.41;;;11.68;100.00
57114;BME280;42994;51.606;9.988;2022-11-09T06:37:35;98406.13;;;11.73;100.00
57114;BME280;42994;51.606;9.988;2022-11-09T06:40:03;98419.13;;;11.69;100.00
57114;BME280;42994;51.606;9.988;2022-11-09T06:42:30;98418.75;;;11.66;100.00
57114;BME280;42994;51.606;9.988;2022-11-09T06:44:57;98407.81;;;11.61;100.00
57114;BME280;42994;51.606;9.988;2022-11-09T06:47:23;98412.38;;;11.60;100.00
57114;BME280;42994;51.606;9.988;2022-11-09T06:49:50;98413.41;;;11.59;100.00
57114;BME280;42994;51.606;9.988;2022-11-09T06:52:17;98412.78;;;11.57;100.00
57114;BME280;42994;51.606;9.988;2022-11-09T06:54:45;98420.41;;;11.60;100.00
57114;BME280;42994;51.606;9.988;2022-11-09T06:57:12;98430.09;;;11.68;100.00
57114;BME280;42994;51.606;9.988;2022-11-09T06:59:39;98431.06;;;11.80;100.00
57114;BME280;42994;51.606;9.988;2022-11-09T07:02:05;98425.69;;;11.80;100.00
57114;BME280;42994;51.606;9.988;2022-11-09T07:04:32;98423.03;;;11.73;100.00
57114;BME280;42994;51.606;9.988;2022-11-09T07:06:59;98427.38;;;11.74;100.00
57114;BME280;42994;51.606;9.988;2022-11-09T07:09:26;98422.44;;;11.71;100.00
57114;BME280;42994;51.606;9.988;2022-11-09T07:11:54;98428.81;;;11.77;100.00
57114;BME280;42994;51.606;9.988;2022-11-09T07:14:21;98426.53;;;11.81;100.00
57114;BME280;42994;51.606;9.988;2022-11-09T07:16:48;98435.44;;;11.74;100.00
57114;BME280;42994;51.606;9.988;2022-11-09T07:19:15;98428.38;;;11.87;100.00
57114;BME280;42994;51.606;9.988;2022-11-09T07:21:42;98443.63;;;11.86;100.00
57114;BME280;42994;51.606;9.988;2022-11-09T07:24:09;98445.72;;;11.84;100.00
57114;BME280;42994;51.606;9.988;2022-11-09T07:26:35;98437.91;;;11.83;100.00
57114;BME280;42994;51.606;9.988;2022-11-09T07:29:04;98436.22;;;11.88;100.00
57114;BME280;42994;51.606;9.988;2022-11-09T07:31:30;98440.75;;;11.88;100.00
57114;BME280;42994;51.606;9.988;2022-11-09T07:33:57;98438.47;;;11.91;100.00
57114;BME280;42994;51.606;9.988;2022-11-09T07:36:29;98439.53;;;11.90;100.00
57114;BME280;42994;51.606;9.988;2022-11-09T07:38:57;98441.78;;;11.93;100.00
57114;BME280;42994;51.606;9.988;2022-11-09T07:41:23;98445.72;;;11.91;100.00
57114;BME280;42994;51.606;9.988;2022-11-09T07:43:50;98446.13;;;11.95;100.00
57114;BME280;42994;51.606;9.988;2022-11-09T07:46:18;98446.13;;;11.95;100.00
57114;BME280;42994;51.606;9.988;2022-11-09T07:48:45;98448.59;;;11.96;100.00
57114;BME280;42994;51.606;9.988;2022-11-09T07:51:11;98452.69;;;11.99;100.00
57114;BME280;42994;51.606;9.988;2022-11-09T07:53:38;98433.72;;;11.93;100.00
57114;BME280;42994;51.606;9.988;2022-11-09T07:56:05;98442.81;;;11.99;100.00
57114;BME280;42994;51.606;9.988;2022-11-09T07:58:32;98443.16;;;12.03;100.00
57114;BME280;42994;51.606;9.988;2022-11-09T08:01:05;98448.94;;;12.06;100.00
57114;BME280;42994;51.606;9.988;2022-11-09T08:03:34;98458.84;;;12.13;100.00
57114;BME280;42994;51.606;9.988;2022-11-09T08:06:00;98460.06;;;12.17;100.00
57114;BME280;42994;51.606;9.988;2022-11-09T08:08:27;98447.66;;;12.16;100.00
57114;BME280;42994;51.606;9.988;2022-11-09T08:10:55;98459.84;;;12.18;100.00
57114;BME280;42994;51.606;9.988;2022-11-09T08:13:23;98453.88;;;12.09;100.00
57114;BME280;42994;51.606;9.988;2022-11-09T08:15:49;98459.25;;;12.09;100.00
57114;BME280;42994;51.606;9.988;2022-11-09T08:18:18;98457.19;;;12.11;100.00
57114;BME280;42994;51.606;9.988;2022-11-09T08:20:47;98454.56;;;12.05;100.00
57114;BME280;42994;51.606;9.988;2022-11-09T08:23:16;98451.63;;;12.06;100.00
57114;BME280;42994;51.606;9.988;2022-11-09T08:25:43;98458.47;;;12.02;100.00
57114;BME280;42994;51.606;9.988;2022-11-09T08:28:11;98458.47;;;12.02;100.00
57114;BME280;42994;51.606;9.988;2022-11-09T08:30:38;98468.59;;;12.07;100.00
57114;BME280;42994;51.606;9.988;2022-11-09T08:33:04;98463.00;;;12.08;100.00
57114;BME280;42994;51.606;9.988;2022-11-09T08:35:31;98453.84;;;12.16;100.00
57114;BME280;42994;51.606;9.988;2022-11-09T08:38:01;98467.28;;;12.16;100.00
57114;BME280;42994;51.606;9.988;2022-11-09T08:40:29;98458.41;;;12.16;100.00
57114;BME280;42994;51.606;9.988;2022-11-09T08:43:00;98467.47;;;12.21;100.00
57114;BME280;42994;51.606;9.988;2022-11-09T08:45:27;98457.19;;;12.11;100.00
57114;BME280;42994;51.606;9.988;2022-11-09T08:47:56;98463.34;;;12.19;100.00
57114;BME280;42994;51.606;9.988;2022-11-09T08:50:23;98457.38;;;12.17;100.00
57114;BME280;42994;51.606;9.988;2022-11-09T08:52:50;98464.13;;;12.26;100.00
57114;BME280;42994;51.606;9.988;2022-11-09T08:55:18;98467.03;;;12.24;100.00
57114;BME280;42994;51.606;9.988;2022-11-09T08:57:45;98471.16;;;12.27;100.00
57114;BME280;42994;51.606;9.988;2022-11-09T09:00:13;98471.97;;;12.27;100.00
57114;BME280;42994;51.606;9.988;2022-11-09T09:02:40;98472.19;;;12.26;100.00
57114;BME280;42994;51.606;9.988;2022-11-09T09:05:07;98456.72;;;12.21;100.00
57114;BME280;42994;51.606;9.988;2022-11-09T09:07:34;98455.03;;;12.27;100.00
57114;BME280;42994;51.606;9.988;2022-11-09T09:10:00;98464.91;;;12.33;100.00
57114;BME280;42994;51.606;9.988;2022-11-09T09:12:29;98468.81;;;12.37;100.00
57114;BME280;42994;51.606;9.988;2022-11-09T09:14:56;98470.66;;;12.43;100.00
57114;BME280;42994;51.606;9.988;2022-11-09T09:17:22;98465.28;;;12.43;100.00
57114;BME280;42994;51.606;9.988;2022-11-09T09:19:49;98469.78;;;12.49;100.00
57114;BME280;42994;51.606;9.988;2022-11-09T09:22:16;98473.50;;;12.48;100.00
57114;BME280;42994;51.606;9.988;2022-11-09T09:24:44;98463.00;;;12.40;100.00
57114;BME280;42994;51.606;9.988;2022-11-09T09:27:10;98477.19;;;12.54;100.00
57114;BME280;42994;51.606;9.988;2022-11-09T09:29:38;98473.50;;;12.48;100.00
57114;BME280;42994;51.606;9.988;2022-11-09T09:32:06;98482.97;;;12.58;100.00
57114;BME280;42994;51.606;9.988;2022-11-09T09:34:32;98487.66;;;12.62;100.00
57114;BME280;42994;51.606;9.988;2022-11-09T09:36:59;98479.81;;;12.61;100.00
57114;BME280;42994;51.606;9.988;2022-11-09T09:39:25;98489.38;;;12.57;100.00
57114;BME280;42994;51.606;9.988;2022-11-09T09:41:54;98478.81;;;12.55;100.00
57114;BME280;42994;51.606;9.988;2022-11-09T09:44:26;98484.19;;;12.55;100.00
57114;BME280;42994;51.606;9.988;2022-11-09T09:46:58;98486.69;;;12.57;100.00
57114;BME280;42994;51.606;9.988;2022-11-09T09:49:32;98483.94;;;12.63;100.00
57114;BME280;42994;51.606;9.988;2022-11-09T09:52:05;98489.13;;;12.65;100.00
57114;BME280;42994;51.606;9.988;2022-11-09T09:54:39;98500.47;;;12.67;100.00
57114;BME280;42994;51.606;9.988;2022-11-09T09:57:12;98488.03;;;12.73;100.00
57114;BME280;42994;51.606;9.988;2022-11-09T09:59:43;98495.91;;;12.67;100.00
57114;BME280;42994;51.606;9.988;2022-11-09T10:02:20;98482.13;;;12.57;100.00
57114;BME280;42994;51.606;9.988;2022-11-09T10:04:47;98492.84;;;12.64;100.00
57114;BME280;42994;51.606;9.988;2022-11-09T10:07:18;98499.41;;;12.68;100.00
57114;BME280;42994;51.606;9.988;2022-11-09T10:10:06;98492.41;;;12.67;100.00
57114;BME280;42994;51.606;9.988;2022-11-09T10:12:44;98493.00;;;12.69;100.00
57114;BME280;42994;51.606;9.988;2022-11-09T10:15:19;98492.72;;;12.77;100.00
57114;BME280;42994;51.606;9.988;2022-11-09T10:18:01;98485.25;;;12.79;100.00
57114;BME280;42994;51.606;9.988;2022-11-09T10:20:49;98494.78;;;12.82;100.00
57114;BME280;42994;51.606;9.988;2022-11-09T10:23:31;98492.31;;;12.80;100.00
57114;BME280;42994;51.606;9.988;2022-11-09T10:26:08;98485.66;;;12.83;100.00
57114;BME280;42994;51.606;9.988;2022-11-09T10:28:38;98482.31;;;12.87;100.00
57114;BME280;42994;51.606;9.988;2022-11-09T10:31:13;98490.59;;;12.86;100.00
57114;BME280;42994;51.606;9.988;2022-11-09T10:33:44;98488.94;;;12.85;100.00
57114;BME280;42994;51.606;9.988;2022-11-09T10:36:17;98481.03;;;12.90;100.00
57114;BME280;42994;51.606;9.988;2022-11-09T10:38:50;98482.28;;;12.94;100.00
57114;BME280;42994;51.606;9.988;2022-11-09T10:41:39;98489.28;;;12.95;100.00
57114;BME280;42994;51.606;9.988;2022-11-09T10:44:25;98500.44;;;12.99;100.00
57114;BME280;42994;51.606;9.988;2022-11-09T10:47:12;98469.72;;;13.06;100.00
57114;BME280;42994;51.606;9.988;2022-11-09T10:50:07;98491.03;;;13.08;100.00
57114;BME280;42994;51.606;9.988;2022-11-09T10:53:08;98474.13;;;13.01;100.00
57114;BME280;42994;51.606;9.988;2022-11-09T10:55:56;98478.72;;;13.19;100.00
57114;BME280;42994;51.606;9.988;2022-11-09T10:58:46;98471.09;;;13.16;100.00
57114;BME280;42994;51.606;9.988;2022-11-09T11:01:35;98478.78;;;13.12;100.00
57114;BME280;42994;51.606;9.988;2022-11-09T11:04:23;98477.19;;;13.04;100.00
57114;BME280;42994;51.606;9.988;2022-11-09T11:07:16;98473.53;;;12.99;100.00
57114;BME280;42994;51.606;9.988;2022-11-09T11:10:09;98474.81;;;12.96;100.00
57114;BME280;42994;51.606;9.988;2022-11-09T11:13:18;98472.56;;;13.12;100.00
57114;BME280;42994;51.606;9.988;2022-11-09T11:16:27;98464.72;;;13.10;100.00
57114;BME280;42994;51.606;9.988;2022-11-09T11:19:26;98467.03;;;13.06;100.00
57114;BME280;42994;51.606;9.988;2022-11-09T11:22:20;98461.81;;;13.12;100.00
57114;BME280;42994;51.606;9.988;2022-11-09T11:25:17;98465.88;;;13.21;100.00
57114;BME280;42994;51.606;9.988;2022-11-09T11:28:08;98462.34;;;13.20;100.00
57114;BME280;42994;51.606;9.988;2022-11-09T11:30:56;98458.84;;;13.20;100.00
57114;BME280;42994;51.606;9.988;2022-11-09T11:33:42;98458.09;;;13.13;100.00
57114;BME280;42994;51.606;9.988;2022-11-09T11:36:35;98463.31;;;13.33;100.00
57114;BME280;42994;51.606;9.988;2022-11-09T11:39:36;98470.09;;;13.35;100.00
57114;BME280;42994;51.606;9.988;2022-11-09T11:45:50;98443.78;;;13.37;100.00
57114;BME280;42994;51.606;9.988;2022-11-09T11:48:56;98456.97;;;13.45;100.00
57114;BME280;42994;51.606;9.988;2022-11-09T11:51:49;98450.13;;;13.43;100.00
57114;BME280;42994;51.606;9.988;2022-11-09T11:55:21;98451.47;;;13.52;100.00
57114;BME280;42994;51.606;9.988;2022-11-09T11:58:38;98460.84;;;13.50;100.00
57114;BME280;42994;51.606;9.988;2022-11-09T12:01:37;98456.16;;;13.63;100.00
57114;BME280;42994;51.606;9.988;2022-11-09T12:04:39;98456.16;;;13.63;100.00
57114;BME280;42994;51.606;9.988;2022-11-09T12:07:35;98461.66;;;13.69;100.00
57114;BME280;42994;51.606;9.988;2022-11-09T12:10:31;98456.00;;;13.58;100.00
57114;BME280;42994;51.606;9.988;2022-11-09T12:13:38;98459.28;;;13.60;100.00
57114;BME280;42994;51.606;9.988;2022-11-09T12:16:30;98461.22;;;13.53;100.00
57114;BME280;42994;51.606;9.988;2022-11-09T12:19:22;98461.97;;;13.60;100.00
57114;BME280;42994;51.606;9.988;2022-11-09T12:22:18;98464.88;;;13.59;100.00
57114;BME280;42994;51.606;9.988;2022-11-09T12:25:12;98459.88;;;13.62;100.00
57114;BME280;42994;51.606;9.988;2022-11-09T12:28:08;98456.44;;;13.55;100.00
57114;BME280;42994;51.606;9.988;2022-11-09T12:31:05;98453.06;;;13.60;100.00
57114;BME280;42994;51.606;9.988;2022-11-09T12:33:56;98458.84;;;13.63;100.00
57114;BME280;42994;51.606;9.988;2022-11-09T12:36:46;98448.72;;;13.59;100.00
57114;BME280;42994;51.606;9.988;2022-11-09T12:39:38;98456.03;;;13.70;100.00
57114;BME280;42994;51.606;9.988;2022-11-09T12:42:30;98463.84;;;13.78;100.00
57114;BME280;42994;51.606;9.988;2022-11-09T12:45:23;98447.31;;;13.75;100.00
57114;BME280;42994;51.606;9.988;2022-11-09T12:48:18;98446.94;;;13.71;100.00
57114;BME280;42994;51.606;9.988;2022-11-09T12:51:06;98456.28;;;13.69;100.00
57114;BME280;42994;51.606;9.988;2022-11-09T12:53:54;98447.69;;;13.78;100.00
57114;BME280;42994;51.606;9.988;2022-11-09T12:56:48;98454.47;;;13.81;100.00
57114;BME280;42994;51.606;9.988;2022-11-09T12:59:36;98453.88;;;13.79;100.00
57114;BME280;42994;51.606;9.988;2022-11-09T13:02:32;98443.09;;;13.79;100.00
57114;BME280;42994;51.606;9.988;2022-11-09T13:05:28;98460.91;;;13.80;100.00
57114;BME280;42994;51.606;9.988;2022-11-09T13:08:17;98448.94;;;13.76;100.00
57114;BME280;42994;51.606;9.988;2022-11-09T13:11:15;98452.84;;;13.80;100.00
57114;BME280;42994;51.606;9.988;2022-11-09T13:14:33;98446.59;;;13.79;100.00
57114;BME280;42994;51.606;9.988;2022-11-09T13:17:52;98466.53;;;13.78;100.00
57114;BME280;42994;51.606;9.988;2022-11-09T13:20:41;98450.88;;;13.69;100.00
57114;BME280;42994;51.606;9.988;2022-11-09T13:23:32;98449.53;;;13.78;100.00